X  Close Metar Aviation Weather Data     EHKD De Kooy Airport
Temperature
9°C Temperature
8°C Dewpoint
94% Humidity



Wind
24 KM/H
15 MPH
7 M/S
13 KTS



170°
S
Current Conditions

Mostly Scattered Clouds Mostly Scattered Clouds
Pressure 1002.03 (hPa) - 29.59 (inHg)
Visibility 6 (mile) - 9.7 (km)
Airport
Airport-code EHKD

Location: De Kooy Airport
Distance: 34 (km)

Metar:
EHKD 291831Z AUTO 17013KT 9999 SCT006 BKN007 BKN009 09/08 Q1002 YLO TEMPO 4500 DZ SCT005 OVC006

Time: 29-02-2024 19:31 CET